sensor_id;sensor_type;location;lat;lon;timestamp;pressure;altitude;pressure_sealevel;temperature;humidity
48053;BME280;33824;51.600;5.718;2022-11-15T00:01:52;100684.72;;;10.00;86.98
48053;BME280;33824;51.600;5.718;2022-11-15T00:04:17;100687.19;;;10.02;87.28
48053;BME280;33824;51.600;5.718;2022-11-15T00:06:43;100679.06;;;10.03;87.45
48053;BME280;33824;51.600;5.718;2022-11-15T00:09:08;100670.88;;;10.05;87.68
48053;BME280;33824;51.600;5.718;2022-11-15T00:11:34;100676.34;;;10.11;87.89
48053;BME280;33824;51.600;5.718;2022-11-15T00:13:59;100674.84;;;10.17;88.00
48053;BME280;33824;51.600;5.718;2022-11-15T00:16:28;100681.13;;;10.24;88.22
48053;BME280;33824;51.600;5.718;2022-11-15T00:18:53;100679.75;;;10.28;87.99
48053;BME280;33824;51.600;5.718;2022-11-15T00:21:19;100685.56;;;10.32;88.47
48053;BME280;33824;51.600;5.718;2022-11-15T00:23:44;100675.38;;;10.35;88.49
48053;BME280;33824;51.600;5.718;2022-11-15T00:26:12;100675.53;;;10.42;88.50
48053;BME280;33824;51.600;5.718;2022-11-15T00:28:37;100678.47;;;10.47;88.49
48053;BME280;33824;51.600;5.718;2022-11-15T00:31:05;100669.78;;;10.53;88.48
48053;BME280;33824;51.600;5.718;2022-11-15T00:33:32;100671.09;;;10.57;89.01
48053;BME280;33824;51.600;5.718;2022-11-15T00:36:06;100670.25;;;10.56;89.08
48053;BME280;33824;51.600;5.718;2022-11-15T00:38:37;100669.00;;;10.67;88.97
48053;BME280;33824;51.600;5.718;2022-11-15T00:41:04;100663.97;;;10.72;89.15
48053;BME280;33824;51.600;5.718;2022-11-15T00:43:31;100659.56;;;10.79;88.96
48053;BME280;33824;51.600;5.718;2022-11-15T00:45:57;100657.84;;;10.86;88.95
48053;BME280;33824;51.600;5.718;2022-11-15T00:48:23;100653.28;;;10.95;88.82
48053;BME280;33824;51.600;5.718;2022-11-15T00:50:49;100661.44;;;10.93;89.03
48053;BME280;33824;51.600;5.718;2022-11-15T00:53:16;100655.19;;;11.01;88.61
48053;BME280;33824;51.600;5.718;2022-11-15T00:55:42;100656.97;;;11.08;88.28
48053;BME280;33824;51.600;5.718;2022-11-15T00:58:07;100658.78;;;11.08;88.45
48053;BME280;33824;51.600;5.718;2022-11-15T01:00:33;100656.59;;;11.12;87.62
48053;BME280;33824;51.600;5.718;2022-11-15T01:03:00;100654.75;;;11.12;88.49
48053;BME280;33824;51.600;5.718;2022-11-15T01:05:27;100661.03;;;11.19;88.04
48053;BME280;33824;51.600;5.718;2022-11-15T01:07:54;100656.34;;;11.21;88.44
48053;BME280;33824;51.600;5.718;2022-11-15T01:10:21;100648.13;;;11.23;87.95
48053;BME280;33824;51.600;5.718;2022-11-15T01:12:46;100656.81;;;11.25;88.14
48053;BME280;33824;51.600;5.718;2022-11-15T01:15:12;100649.44;;;11.27;87.92
48053;BME280;33824;51.600;5.718;2022-11-15T01:17:37;100646.75;;;11.27;88.00
48053;BME280;33824;51.600;5.718;2022-11-15T01:20:03;100647.22;;;11.30;88.06
48053;BME280;33824;51.600;5.718;2022-11-15T01:22:29;100641.53;;;11.33;88.04
48053;BME280;33824;51.600;5.718;2022-11-15T01:24:55;100642.34;;;11.34;88.30
48053;BME280;33824;51.600;5.718;2022-11-15T01:27:20;100636.00;;;11.35;87.94
48053;BME280;33824;51.600;5.718;2022-11-15T01:29:46;100631.31;;;11.37;88.37
48053;BME280;33824;51.600;5.718;2022-11-15T01:32:11;100632.97;;;11.38;88.15
48053;BME280;33824;51.600;5.718;2022-11-15T01:34:37;100628.06;;;11.41;88.06
48053;BME280;33824;51.600;5.718;2022-11-15T01:37:03;100621.94;;;11.41;88.10
48053;BME280;33824;51.600;5.718;2022-11-15T01:39:28;100630.94;;;11.40;88.29
48053;BME280;33824;51.600;5.718;2022-11-15T01:41:54;100622.94;;;11.40;88.03
48053;BME280;33824;51.600;5.718;2022-11-15T01:44:40;100622.56;;;11.28;87.93
48053;BME280;33824;51.600;5.718;2022-11-15T01:47:19;100614.66;;;11.35;88.34
48053;BME280;33824;51.600;5.718;2022-11-15T01:49:51;100614.84;;;11.33;88.00
48053;BME280;33824;51.600;5.718;2022-11-15T01:52:20;100616.31;;;11.36;88.22
48053;BME280;33824;51.600;5.718;2022-11-15T01:54:51;100619.81;;;11.36;88.46
48053;BME280;33824;51.600;5.718;2022-11-15T01:57:18;100615.94;;;11.39;88.85
48053;BME280;33824;51.600;5.718;2022-11-15T01:59:45;100617.41;;;11.41;88.75
48053;BME280;33824;51.600;5.718;2022-11-15T02:02:11;100610.22;;;11.42;88.75
48053;BME280;33824;51.600;5.718;2022-11-15T02:04:43;100610.59;;;11.39;89.13
48053;BME280;33824;51.600;5.718;2022-11-15T02:07:11;100608.38;;;11.42;89.51
48053;BME280;33824;51.600;5.718;2022-11-15T02:09:37;100614.84;;;11.48;89.77
48053;BME280;33824;51.600;5.718;2022-11-15T02:12:03;100608.13;;;11.52;89.72
48053;BME280;33824;51.600;5.718;2022-11-15T02:14:30;100617.59;;;11.54;89.90
48053;BME280;33824;51.600;5.718;2022-11-15T02:20:14;100606.81;;;11.48;89.96
48053;BME280;33824;51.600;5.718;2022-11-15T02:30:44;100592.44;;;11.64;90.19
48053;BME280;33824;51.600;5.718;2022-11-15T02:33:30;100591.88;;;11.68;90.31
48053;BME280;33824;51.600;5.718;2022-11-15T02:36:02;100599.91;;;11.83;90.55
48053;BME280;33824;51.600;5.718;2022-11-15T02:41:26;100588.56;;;11.81;90.44
48053;BME280;33824;51.600;5.718;2022-11-15T02:46:42;100582.47;;;11.87;90.65
48053;BME280;33824;51.600;5.718;2022-11-15T02:49:32;100584.38;;;11.93;91.01
48053;BME280;33824;51.600;5.718;2022-11-15T02:51:58;100583.63;;;11.99;91.70
48053;BME280;33824;51.600;5.718;2022-11-15T02:54:25;100587.19;;;12.06;90.97
48053;BME280;33824;51.600;5.718;2022-11-15T02:56:54;100576.75;;;12.11;90.85
48053;BME280;33824;51.600;5.718;2022-11-15T03:02:07;100570.59;;;12.11;91.19
48053;BME280;33824;51.600;5.718;2022-11-15T03:07:11;100567.34;;;12.15;91.53
48053;BME280;33824;51.600;5.718;2022-11-15T03:09:44;100562.44;;;12.19;91.75
48053;BME280;33824;51.600;5.718;2022-11-15T03:12:23;100565.38;;;12.24;91.66
48053;BME280;33824;51.600;5.718;2022-11-15T03:17:26;100564.38;;;12.25;92.26
48053;BME280;33824;51.600;5.718;2022-11-15T03:19:56;100558.50;;;12.36;91.73
48053;BME280;33824;51.600;5.718;2022-11-15T03:22:24;100553.41;;;12.41;91.67
48053;BME280;33824;51.600;5.718;2022-11-15T03:24:54;100561.84;;;12.44;91.65
48053;BME280;33824;51.600;5.718;2022-11-15T03:27:24;100555.72;;;12.44;92.36
48053;BME280;33824;51.600;5.718;2022-11-15T03:29:54;100562.91;;;12.43;92.00
48053;BME280;33824;51.600;5.718;2022-11-15T03:32:25;100556.47;;;12.38;91.35
48053;BME280;33824;51.600;5.718;2022-11-15T03:34:57;100560.78;;;12.39;91.64
48053;BME280;33824;51.600;5.718;2022-11-15T03:37:30;100563.66;;;12.37;91.86
48053;BME280;33824;51.600;5.718;2022-11-15T03:39:56;100571.16;;;12.48;92.18
48053;BME280;33824;51.600;5.718;2022-11-15T03:42:27;100568.47;;;12.48;92.08
48053;BME280;33824;51.600;5.718;2022-11-15T03:45:02;100567.47;;;12.49;91.82
48053;BME280;33824;51.600;5.718;2022-11-15T03:47:37;100560.53;;;12.55;92.06
48053;BME280;33824;51.600;5.718;2022-11-15T03:50:10;100563.81;;;12.57;92.06
48053;BME280;33824;51.600;5.718;2022-11-15T03:52:39;100560.19;;;12.65;92.42
48053;BME280;33824;51.600;5.718;2022-11-15T03:55:09;100560.63;;;12.68;92.17
48053;BME280;33824;51.600;5.718;2022-11-15T03:57:36;100553.47;;;12.75;92.21
48053;BME280;33824;51.600;5.718;2022-11-15T04:00:03;100573.84;;;12.76;92.36
48053;BME280;33824;51.600;5.718;2022-11-15T04:02:29;100567.28;;;12.79;92.38
48053;BME280;33824;51.600;5.718;2022-11-15T04:04:55;100563.31;;;12.75;92.58
48053;BME280;33824;51.600;5.718;2022-11-15T04:07:20;100567.09;;;12.80;92.57
48053;BME280;33824;51.600;5.718;2022-11-15T04:09:46;100563.19;;;12.83;92.88
48053;BME280;33824;51.600;5.718;2022-11-15T04:12:36;100559.06;;;12.80;92.51
48053;BME280;33824;51.600;5.718;2022-11-15T04:15:11;100563.19;;;12.83;92.83
48053;BME280;33824;51.600;5.718;2022-11-15T04:17:47;100555.41;;;12.88;92.77
48053;BME280;33824;51.600;5.718;2022-11-15T04:20:19;100558.28;;;12.86;92.56
48053;BME280;33824;51.600;5.718;2022-11-15T04:23:11;100556.63;;;12.85;92.46
48053;BME280;33824;51.600;5.718;2022-11-15T04:25:58;100555.22;;;12.89;92.61
48053;BME280;33824;51.600;5.718;2022-11-15T04:28:25;100552.16;;;12.92;92.52
48053;BME280;33824;51.600;5.718;2022-11-15T04:30:51;100548.47;;;12.93;92.65
48053;BME280;33824;51.600;5.718;2022-11-15T04:33:16;100556.91;;;12.97;92.67
48053;BME280;33824;51.600;5.718;2022-11-15T04:35:42;100559.38;;;12.98;92.72
48053;BME280;33824;51.600;5.718;2022-11-15T04:38:09;100558.38;;;12.99;92.61
48053;BME280;33824;51.600;5.718;2022-11-15T04:40:37;100561.66;;;13.02;92.42
48053;BME280;33824;51.600;5.718;2022-11-15T04:43:03;100555.50;;;13.01;92.43
48053;BME280;33824;51.600;5.718;2022-11-15T04:45:28;100555.50;;;13.01;92.68
48053;BME280;33824;51.600;5.718;2022-11-15T04:47:54;100561.47;;;13.03;92.35
48053;BME280;33824;51.600;5.718;2022-11-15T04:50:19;100549.09;;;13.02;92.36
48053;BME280;33824;51.600;5.718;2022-11-15T04:52:53;100558.94;;;12.95;92.59
48053;BME280;33824;51.600;5.718;2022-11-15T04:55:19;100559.63;;;13.04;92.49
48053;BME280;33824;51.600;5.718;2022-11-15T04:57:44;100550.59;;;13.05;92.41
48053;BME280;33824;51.600;5.718;2022-11-15T05:00:15;100555.50;;;13.01;92.34
48053;BME280;33824;51.600;5.718;2022-11-15T05:02:41;100554.06;;;13.05;92.62
48053;BME280;33824;51.600;5.718;2022-11-15T05:05:25;100554.06;;;13.05;92.29
48053;BME280;33824;51.600;5.718;2022-11-15T05:07:50;100552.44;;;13.04;92.38
48053;BME280;33824;51.600;5.718;2022-11-15T05:10:16;100557.78;;;13.04;92.45
48053;BME280;33824;51.600;5.718;2022-11-15T05:12:42;100557.56;;;13.06;92.47
48053;BME280;33824;51.600;5.718;2022-11-15T05:15:08;100549.53;;;13.06;92.48
48053;BME280;33824;51.600;5.718;2022-11-15T05:17:34;100548.94;;;13.04;92.21
48053;BME280;33824;51.600;5.718;2022-11-15T05:20:00;100551.78;;;13.02;92.20
48053;BME280;33824;51.600;5.718;2022-11-15T05:22:26;100555.50;;;13.01;92.32
48053;BME280;33824;51.600;5.718;2022-11-15T05:24:52;100554.69;;;13.01;92.40
48053;BME280;33824;51.600;5.718;2022-11-15T05:27:17;100551.56;;;12.97;92.65
48053;BME280;33824;51.600;5.718;2022-11-15T05:29:43;100546.59;;;12.94;92.94
48053;BME280;33824;51.600;5.718;2022-11-15T05:32:09;100540.22;;;12.95;92.69
48053;BME280;33824;51.600;5.718;2022-11-15T05:34:35;100548.25;;;12.95;92.66
48053;BME280;33824;51.600;5.718;2022-11-15T05:37:01;100543.09;;;12.93;93.10
48053;BME280;33824;51.600;5.718;2022-11-15T05:39:26;100534.03;;;12.94;92.77
48053;BME280;33824;51.600;5.718;2022-11-15T05:41:55;100540.81;;;12.90;92.59
48053;BME280;33824;51.600;5.718;2022-11-15T05:44:24;100539.78;;;12.91;92.87
48053;BME280;33824;51.600;5.718;2022-11-15T05:46:52;100535.09;;;12.93;92.81
48053;BME280;33824;51.600;5.718;2022-11-15T05:49:21;100540.44;;;12.93;92.95
48053;BME280;33824;51.600;5.718;2022-11-15T05:51:48;100535.09;;;12.93;93.06
48053;BME280;33824;51.600;5.718;2022-11-15T05:54:14;100535.09;;;12.93;93.04
48053;BME280;33824;51.600;5.718;2022-11-15T05:56:40;100539.59;;;12.93;93.08
48053;BME280;33824;51.600;5.718;2022-11-15T05:59:07;100543.09;;;12.93;93.24
48053;BME280;33824;51.600;5.718;2022-11-15T06:01:33;100544.75;;;12.94;93.37
48053;BME280;33824;51.600;5.718;2022-11-15T06:03:59;100548.69;;;12.98;93.38
48053;BME280;33824;51.600;5.718;2022-11-15T06:06:24;100547.47;;;13.01;93.52
48053;BME280;33824;51.600;5.718;2022-11-15T06:08:50;100551.78;;;13.02;93.57
48053;BME280;33824;51.600;5.718;2022-11-15T06:11:15;100556.94;;;13.04;93.29
48053;BME280;33824;51.600;5.718;2022-11-15T06:13:41;100559.41;;;13.05;92.60
48053;BME280;33824;51.600;5.718;2022-11-15T06:16:07;100546.88;;;13.06;93.34
48053;BME280;33824;51.600;5.718;2022-11-15T06:18:33;100551.19;;;13.07;93.16
48053;BME280;33824;51.600;5.718;2022-11-15T06:20:59;100559.88;;;13.09;92.89
48053;BME280;33824;51.600;5.718;2022-11-15T06:23:25;100550.19;;;13.08;92.95
48053;BME280;33824;51.600;5.718;2022-11-15T06:25:51;100555.94;;;13.05;93.16
48053;BME280;33824;51.600;5.718;2022-11-15T06:28:16;100552.00;;;13.01;93.17
48053;BME280;33824;51.600;5.718;2022-11-15T06:30:42;100559.19;;;13.00;93.06
48053;BME280;33824;51.600;5.718;2022-11-15T06:33:07;100554.63;;;12.94;93.09
48053;BME280;33824;51.600;5.718;2022-11-15T06:35:35;100560.19;;;12.92;92.76
48053;BME280;33824;51.600;5.718;2022-11-15T06:38:06;100561.34;;;12.83;93.15
48053;BME280;33824;51.600;5.718;2022-11-15T06:40:36;100564.84;;;12.84;93.45
48053;BME280;33824;51.600;5.718;2022-11-15T06:43:03;100566.06;;;12.81;93.77
48053;BME280;33824;51.600;5.718;2022-11-15T06:45:29;100567.66;;;12.76;94.39
48053;BME280;33824;51.600;5.718;2022-11-15T06:47:55;100576.66;;;12.68;95.00
48053;BME280;33824;51.600;5.718;2022-11-15T06:50:20;100578.31;;;12.69;94.76
48053;BME280;33824;51.600;5.718;2022-11-15T06:52:46;100581.41;;;12.66;95.04
48053;BME280;33824;51.600;5.718;2022-11-15T06:55:12;100576.63;;;12.62;95.44
48053;BME280;33824;51.600;5.718;2022-11-15T06:57:46;100589.25;;;12.46;96.05
48053;BME280;33824;51.600;5.718;2022-11-15T07:00:12;100593.25;;;12.57;95.81
48053;BME280;33824;51.600;5.718;2022-11-15T07:02:38;100595.09;;;12.57;95.44
48053;BME280;33824;51.600;5.718;2022-11-15T07:05:03;100590.56;;;12.57;95.28
48053;BME280;33824;51.600;5.718;2022-11-15T07:07:29;100587.72;;;12.59;95.31
48053;BME280;33824;51.600;5.718;2022-11-15T07:09:54;100590.13;;;12.54;95.20
48053;BME280;33824;51.600;5.718;2022-11-15T07:12:20;100588.66;;;12.51;95.55
48053;BME280;33824;51.600;5.718;2022-11-15T07:14:46;100594.19;;;12.49;95.61
48053;BME280;33824;51.600;5.718;2022-11-15T07:17:11;100601.84;;;12.52;95.55
48053;BME280;33824;51.600;5.718;2022-11-15T07:19:37;100590.31;;;12.52;94.99
48053;BME280;33824;51.600;5.718;2022-11-15T07:22:02;100594.03;;;12.51;95.26
48053;BME280;33824;51.600;5.718;2022-11-15T07:24:28;100602.66;;;12.53;95.13
48053;BME280;33824;51.600;5.718;2022-11-15T07:26:53;100594.66;;;12.53;95.31
48053;BME280;33824;51.600;5.718;2022-11-15T07:29:19;100602.09;;;12.58;94.99
48053;BME280;33824;51.600;5.718;2022-11-15T07:31:44;100611.78;;;12.59;95.30
48053;BME280;33824;51.600;5.718;2022-11-15T07:34:10;100616.75;;;12.62;95.03
48053;BME280;33824;51.600;5.718;2022-11-15T07:36:35;100609.53;;;12.62;95.03
48053;BME280;33824;51.600;5.718;2022-11-15T07:39:01;100609.34;;;12.64;94.88
48053;BME280;33824;51.600;5.718;2022-11-15T07:41:27;100618.00;;;12.66;94.96
48053;BME280;33824;51.600;5.718;2022-11-15T07:43:52;100615.78;;;12.69;94.91
48053;BME280;33824;51.600;5.718;2022-11-15T07:46:18;100614.94;;;12.69;94.89
48053;BME280;33824;51.600;5.718;2022-11-15T07:48:44;100612.88;;;12.71;95.06
48053;BME280;33824;51.600;5.718;2022-11-15T07:51:13;100606.09;;;12.68;95.11
48053;BME280;33824;51.600;5.718;2022-11-15T07:53:39;100607.19;;;12.74;94.99
48053;BME280;33824;51.600;5.718;2022-11-15T07:56:06;100604.69;;;12.72;94.94
48053;BME280;33824;51.600;5.718;2022-11-15T07:58:32;100612.31;;;12.75;94.96
48053;BME280;33824;51.600;5.718;2022-11-15T08:00:57;100609.19;;;12.72;94.99
48053;BME280;33824;51.600;5.718;2022-11-15T08:03:23;100603.03;;;12.71;95.13
48053;BME280;33824;51.600;5.718;2022-11-15T08:05:51;100606.75;;;12.70;94.70
48053;BME280;33824;51.600;5.718;2022-11-15T08:08:17;100609.84;;;12.74;95.10
48053;BME280;33824;51.600;5.718;2022-11-15T08:10:43;100600.34;;;12.71;95.11
48053;BME280;33824;51.600;5.718;2022-11-15T08:13:10;100604.06;;;12.70;95.11
48053;BME280;33824;51.600;5.718;2022-11-15T08:15:37;100604.28;;;12.75;95.33
48053;BME280;33824;51.600;5.718;2022-11-15T08:18:05;100597.50;;;12.73;95.04
48053;BME280;33824;51.600;5.718;2022-11-15T08:20:31;100612.88;;;12.71;95.18
48053;BME280;33824;51.600;5.718;2022-11-15T08:22:59;100603.22;;;12.70;95.20
48053;BME280;33824;51.600;5.718;2022-11-15T08:25:25;100612.66;;;12.66;95.30
48053;BME280;33824;51.600;5.718;2022-11-15T08:27:53;100606.88;;;12.62;95.22
48053;BME280;33824;51.600;5.718;2022-11-15T08:30:18;100609.16;;;12.65;95.06
48053;BME280;33824;51.600;5.718;2022-11-15T08:32:44;100616.09;;;12.60;95.26
48053;BME280;33824;51.600;5.718;2022-11-15T08:35:10;100610.00;;;12.66;95.19
48053;BME280;33824;51.600;5.718;2022-11-15T08:37:36;100612.22;;;12.62;95.01
48053;BME280;33824;51.600;5.718;2022-11-15T08:40:02;100595.53;;;12.60;95.08
48053;BME280;33824;51.600;5.718;2022-11-15T08:42:27;100607.50;;;12.64;95.00
48053;BME280;33824;51.600;5.718;2022-11-15T08:44:53;100613.84;;;12.63;94.91
48053;BME280;33824;51.600;5.718;2022-11-15T08:47:18;100609.53;;;12.62;95.00
48053;BME280;33824;51.600;5.718;2022-11-15T08:49:44;100606.66;;;12.64;94.83
48053;BME280;33824;51.600;5.718;2022-11-15T08:52:09;100603.16;;;12.63;94.12
48053;BME280;33824;51.600;5.718;2022-11-15T08:54:35;100594.69;;;12.60;93.93
48053;BME280;33824;51.600;5.718;2022-11-15T08:57:01;100594.03;;;12.51;94.20
48053;BME280;33824;51.600;5.718;2022-11-15T08:59:26;100585.75;;;12.46;94.23
48053;BME280;33824;51.600;5.718;2022-11-15T09:01:52;100589.25;;;12.46;93.99
48053;BME280;33824;51.600;5.718;2022-11-15T09:04:17;100588.66;;;12.51;94.27
48053;BME280;33824;51.600;5.718;2022-11-15T09:06:43;100590.31;;;12.52;93.99
48053;BME280;33824;51.600;5.718;2022-11-15T09:09:08;100580.84;;;12.49;93.84
48053;BME280;33824;51.600;5.718;2022-11-15T09:11:34;100579.78;;;12.44;94.16
48053;BME280;33824;51.600;5.718;2022-11-15T09:14:00;100579.59;;;12.52;94.18
48053;BME280;33824;51.600;5.718;2022-11-15T09:16:25;100582.94;;;12.54;94.00
48053;BME280;33824;51.600;5.718;2022-11-15T09:18:52;100582.84;;;12.69;94.12
48053;BME280;33824;51.600;5.718;2022-11-15T09:21:18;100575.91;;;12.74;93.86
48053;BME280;33824;51.600;5.718;2022-11-15T09:23:44;100573.38;;;12.66;93.69
48053;BME280;33824;51.600;5.718;2022-11-15T09:26:10;100574.19;;;12.67;93.67
48053;BME280;33824;51.600;5.718;2022-11-15T09:28:35;100567.19;;;12.66;93.68
48053;BME280;33824;51.600;5.718;2022-11-15T09:31:04;100564.00;;;12.83;93.64
48053;BME280;33824;51.600;5.718;2022-11-15T09:33:30;100547.63;;;12.93;93.31
48053;BME280;33824;51.600;5.718;2022-11-15T09:36:01;100540.03;;;12.96;92.50
48053;BME280;33824;51.600;5.718;2022-11-15T09:38:27;100537.13;;;12.98;92.69
48053;BME280;33824;51.600;5.718;2022-11-15T09:41:08;100539.59;;;12.93;92.17
48053;BME280;33824;51.600;5.718;2022-11-15T09:49:18;100546.22;;;12.97;91.33
48053;BME280;33824;51.600;5.718;2022-11-15T09:51:47;100530.81;;;13.06;90.70
48053;BME280;33824;51.600;5.718;2022-11-15T09:54:26;100537.81;;;13.07;90.01
48053;BME280;33824;51.600;5.718;2022-11-15T09:56:52;100531.97;;;13.24;89.67
48053;BME280;33824;51.600;5.718;2022-11-15T09:59:27;100537.38;;;13.03;87.49
48053;BME280;33824;51.600;5.718;2022-11-15T10:02:23;100538.53;;;13.15;88.74
48053;BME280;33824;51.600;5.718;2022-11-15T10:04:58;100523.16;;;13.30;88.53
48053;BME280;33824;51.600;5.718;2022-11-15T10:07:31;100528.09;;;13.33;87.46
48053;BME280;33824;51.600;5.718;2022-11-15T10:10:11;100527.53;;;13.51;87.56
48053;BME280;33824;51.600;5.718;2022-11-15T10:12:42;100531.69;;;13.54;86.09
48053;BME280;33824;51.600;5.718;2022-11-15T10:15:15;100526.72;;;13.51;84.77
48053;BME280;33824;51.600;5.718;2022-11-15T10:20:30;100522.41;;;13.50;82.82
48053;BME280;33824;51.600;5.718;2022-11-15T10:22:59;100516.41;;;13.48;81.92
48053;BME280;33824;51.600;5.718;2022-11-15T10:25:26;100510.66;;;13.51;81.58
48053;BME280;33824;51.600;5.718;2022-11-15T10:28:45;100502.81;;;13.42;79.98
48053;BME280;33824;51.600;5.718;2022-11-15T10:30:51;100510.19;;;13.40;80.11
48053;BME280;33824;51.600;5.718;2022-11-15T10:41:29;100498.69;;;13.06;78.22
48053;BME280;33824;51.600;5.718;2022-11-15T10:46:45;100501.31;;;13.27;78.62
48053;BME280;33824;51.600;5.718;2022-11-15T10:54:29;100479.38;;;13.10;78.43
48053;BME280;33824;51.600;5.718;2022-11-15T10:56:58;100487.03;;;13.13;77.81
48053;BME280;33824;51.600;5.718;2022-11-15T10:59:33;100480.34;;;13.03;76.83
48053;BME280;33824;51.600;5.718;2022-11-15T11:02:01;100480.25;;;13.17;77.48
48053;BME280;33824;51.600;5.718;2022-11-15T11:04:26;100477.63;;;13.30;77.35
48053;BME280;33824;51.600;5.718;2022-11-15T11:06:57;100479.88;;;13.27;77.29
48053;BME280;33824;51.600;5.718;2022-11-15T11:09:30;100467.34;;;13.34;76.72
48053;BME280;33824;51.600;5.718;2022-11-15T11:11:57;100472.72;;;13.40;76.55
48053;BME280;33824;51.600;5.718;2022-11-15T11:14:24;100464.72;;;13.54;76.35
48053;BME280;33824;51.600;5.718;2022-11-15T11:16:54;100469.91;;;13.62;76.70
48053;BME280;33824;51.600;5.718;2022-11-15T11:19:36;100454.84;;;13.61;75.52
48053;BME280;33824;51.600;5.718;2022-11-15T11:25:18;100454.84;;;13.74;76.49
48053;BME280;33824;51.600;5.718;2022-11-15T11:30:48;100445.63;;;13.96;75.20
48053;BME280;33824;51.600;5.718;2022-11-15T11:33:32;100435.72;;;13.97;74.37
48053;BME280;33824;51.600;5.718;2022-11-15T11:41:15;100432.66;;;14.00;74.30
48053;BME280;33824;51.600;5.718;2022-11-15T11:43:57;100416.16;;;13.96;73.55
48053;BME280;33824;51.600;5.718;2022-11-15T11:46:37;100408.69;;;13.85;73.81
48053;BME280;33824;51.600;5.718;2022-11-15T11:49:12;100400.47;;;13.80;73.34
48053;BME280;33824;51.600;5.718;2022-11-15T11:51:45;100401.69;;;13.77;72.84
48053;BME280;33824;51.600;5.718;2022-11-15T11:54:22;100398.19;;;13.70;72.26
48053;BME280;33824;51.600;5.718;2022-11-15T11:56:50;100382.72;;;13.79;72.34
48053;BME280;33824;51.600;5.718;2022-11-15T12:01:51;100379.41;;;13.97;73.42
48053;BME280;33824;51.600;5.718;2022-11-15T12:04:25;100380.66;;;14.01;73.19
48053;BME280;33824;51.600;5.718;2022-11-15T12:06:59;100375.91;;;14.09;73.53
48053;BME280;33824;51.600;5.718;2022-11-15T12:09:38;100373.84;;;14.05;72.86
48053;BME280;33824;51.600;5.718;2022-11-15T12:12:19;100365.81;;;14.05;72.29
48053;BME280;33824;51.600;5.718;2022-11-15T12:17:36;100361.06;;;14.13;72.24
48053;BME280;33824;51.600;5.718;2022-11-15T12:25:24;100343.31;;;14.25;71.83
48053;BME280;33824;51.600;5.718;2022-11-15T12:27:58;100332.97;;;14.29;71.79
48053;BME280;33824;51.600;5.718;2022-11-15T12:30:39;100325.56;;;14.37;71.43
48053;BME280;33824;51.600;5.718;2022-11-15T12:33:30;100329.69;;;14.40;71.18
48053;BME280;33824;51.600;5.718;2022-11-15T12:36:05;100317.91;;;14.48;69.65
48053;BME280;33824;51.600;5.718;2022-11-15T12:41:17;100313.31;;;14.55;70.34
48053;BME280;33824;51.600;5.718;2022-11-15T12:43:44;100304.66;;;14.59;69.78
48053;BME280;33824;51.600;5.718;2022-11-15T12:46:13;100307.13;;;14.54;68.59
48053;BME280;33824;51.600;5.718;2022-11-15T12:48:47;100305.03;;;14.63;69.54
48053;BME280;33824;51.600;5.718;2022-11-15T12:51:13;100303.56;;;14.67;69.40
48053;BME280;33824;51.600;5.718;2022-11-15T12:53:39;100286.06;;;14.64;68.45
48053;BME280;33824;51.600;5.718;2022-11-15T12:58:54;100270.41;;;14.55;68.00
48053;BME280;33824;51.600;5.718;2022-11-15T13:06:49;100258.69;;;14.43;67.80
48053;BME280;33824;51.600;5.718;2022-11-15T13:11:53;100254.94;;;14.50;68.21
48053;BME280;33824;51.600;5.718;2022-11-15T13:14:51;100257.47;;;14.45;67.58
48053;BME280;33824;51.600;5.718;2022-11-15T13:17:27;100251.63;;;14.55;68.19
48053;BME280;33824;51.600;5.718;2022-11-15T13:22:27;100246.22;;;14.61;68.13
48053;BME280;33824;51.600;5.718;2022-11-15T13:30:35;100225.41;;;14.57;67.36
48053;BME280;33824;51.600;5.718;2022-11-15T13:33:09;100219.88;;;14.52;67.18
48053;BME280;33824;51.600;5.718;2022-11-15T13:35:40;100213.63;;;14.58;67.40
48053;BME280;33824;51.600;5.718;2022-11-15T13:38:06;100217.38;;;14.57;67.24
48053;BME280;33824;51.600;5.718;2022-11-15T13:40:36;100206.66;;;14.50;67.24
48053;BME280;33824;51.600;5.718;2022-11-15T13:43:27;100198.69;;;14.37;67.20
48053;BME280;33824;51.600;5.718;2022-11-15T13:46:30;100200.94;;;14.33;67.24
48053;BME280;33824;51.600;5.718;2022-11-15T13:48:58;100201.53;;;14.49;68.18
48053;BME280;33824;51.600;5.718;2022-11-15T13:54:28;100192.03;;;14.46;67.09
48053;BME280;33824;51.600;5.718;2022-11-15T13:57:03;100190.16;;;14.53;67.57
48053;BME280;33824;51.600;5.718;2022-11-15T13:59:31;100175.69;;;14.54;67.47
48053;BME280;33824;51.600;5.718;2022-11-15T14:02:03;100174.69;;;14.49;67.24
48053;BME280;33824;51.600;5.718;2022-11-15T14:04:38;100175.94;;;14.46;67.40
48053;BME280;33824;51.600;5.718;2022-11-15T14:07:16;100174.94;;;14.40;67.07
48053;BME280;33824;51.600;5.718;2022-11-15T14:09:41;100165.88;;;14.42;66.93
48053;BME280;33824;51.600;5.718;2022-11-15T14:14:50;100154.13;;;14.36;66.55
48053;BME280;33824;51.600;5.718;2022-11-15T14:17:21;100160.09;;;14.31;66.79
48053;BME280;33824;51.600;5.718;2022-11-15T14:19:49;100150.19;;;14.32;66.90
48053;BME280;33824;51.600;5.718;2022-11-15T14:22:22;100148.00;;;14.22;67.46
48053;BME280;33824;51.600;5.718;2022-11-15T14:25:17;100147.41;;;14.14;67.59
48053;BME280;33824;51.600;5.718;2022-11-15T14:28:09;100133.22;;;14.07;66.49
48053;BME280;33824;51.600;5.718;2022-11-15T14:30:35;100135.22;;;14.18;66.96
48053;BME280;33824;51.600;5.718;2022-11-15T14:33:00;100137.91;;;14.18;67.04
48053;BME280;33824;51.600;5.718;2022-11-15T14:35:26;100125.53;;;14.17;67.06
48053;BME280;33824;51.600;5.718;2022-11-15T14:37:52;100118.53;;;14.16;67.01
48053;BME280;33824;51.600;5.718;2022-11-15T14:40:20;100116.06;;;14.14;67.04